sensor_id;sensor_type;location;lat;lon;timestamp;temperature;humidity
56424;DHT22;42329;43.516;3.684;2022-09-09T00:01:36;18.50;99.90
56424;DHT22;42329;43.516;3.684;2022-09-09T00:04:05;18.40;99.90
56424;DHT22;42329;43.516;3.684;2022-09-09T00:06:43;18.40;99.90
56424;DHT22;42329;43.516;3.684;2022-09-09T00:09:12;18.40;99.90
56424;DHT22;42329;43.516;3.684;2022-09-09T00:11:43;18.40;99.90
56424;DHT22;42329;43.516;3.684;2022-09-09T00:14:13;18.40;99.90
56424;DHT22;42329;43.516;3.684;2022-09-09T00:16:42;18.40;99.90
56424;DHT22;42329;43.516;3.684;2022-09-09T00:19:14;18.40;99.90
56424;DHT22;42329;43.516;3.684;2022-09-09T00:21:47;18.40;99.90
56424;DHT22;42329;43.516;3.684;2022-09-09T00:24:23;18.40;99.90
56424;DHT22;42329;43.516;3.684;2022-09-09T00:26:51;18.40;99.90
56424;DHT22;42329;43.516;3.684;2022-09-09T00:29:22;18.40;99.90
56424;DHT22;42329;43.516;3.684;2022-09-09T00:31:53;18.30;99.90
56424;DHT22;42329;43.516;3.684;2022-09-09T00:34:21;18.30;99.90
56424;DHT22;42329;43.516;3.684;2022-09-09T00:36:50;18.40;99.90
56424;DHT22;42329;43.516;3.684;2022-09-09T00:39:21;18.40;99.90
56424;DHT22;42329;43.516;3.684;2022-09-09T00:41:51;18.40;99.90
56424;DHT22;42329;43.516;3.684;2022-09-09T00:44:25;18.40;99.90
56424;DHT22;42329;43.516;3.684;2022-09-09T00:46:56;18.40;99.90
56424;DHT22;42329;43.516;3.684;2022-09-09T00:49:30;18.40;99.90
56424;DHT22;42329;43.516;3.684;2022-09-09T00:52:03;18.30;99.90
56424;DHT22;42329;43.516;3.684;2022-09-09T00:54:40;18.30;99.90
56424;DHT22;42329;43.516;3.684;2022-09-09T00:57:15;18.30;99.90
56424;DHT22;42329;43.516;3.684;2022-09-09T00:59:46;18.20;99.90
56424;DHT22;42329;43.516;3.684;2022-09-09T01:02:15;18.20;99.90
56424;DHT22;42329;43.516;3.684;2022-09-09T01:04:44;18.20;99.90
56424;DHT22;42329;43.516;3.684;2022-09-09T01:07:12;18.10;99.90
56424;DHT22;42329;43.516;3.684;2022-09-09T01:09:47;18.10;99.90
56424;DHT22;42329;43.516;3.684;2022-09-09T01:12:17;18.20;99.90
56424;DHT22;42329;43.516;3.684;2022-09-09T01:14:47;18.20;99.90
56424;DHT22;42329;43.516;3.684;2022-09-09T01:17:17;18.20;99.90
56424;DHT22;42329;43.516;3.684;2022-09-09T01:19:49;18.20;99.90
56424;DHT22;42329;43.516;3.684;2022-09-09T01:22:22;18.30;99.90
56424;DHT22;42329;43.516;3.684;2022-09-09T01:25:05;18.30;99.90
56424;DHT22;42329;43.516;3.684;2022-09-09T01:27:37;18.30;99.90
56424;DHT22;42329;43.516;3.684;2022-09-09T01:30:04;18.40;99.90
56424;DHT22;42329;43.516;3.684;2022-09-09T01:32:39;18.40;99.90
56424;DHT22;42329;43.516;3.684;2022-09-09T01:35:07;18.40;99.90
56424;DHT22;42329;43.516;3.684;2022-09-09T01:37:36;18.40;99.90
56424;DHT22;42329;43.516;3.684;2022-09-09T01:40:04;18.40;99.90
56424;DHT22;42329;43.516;3.684;2022-09-09T01:42:31;18.40;99.90
56424;DHT22;42329;43.516;3.684;2022-09-09T01:44:59;18.40;99.90
56424;DHT22;42329;43.516;3.684;2022-09-09T01:47:26;18.40;99.90
56424;DHT22;42329;43.516;3.684;2022-09-09T01:49:53;18.40;99.90
56424;DHT22;42329;43.516;3.684;2022-09-09T01:55:26;18.40;99.90
56424;DHT22;42329;43.516;3.684;2022-09-09T01:57:56;18.40;99.90
56424;DHT22;42329;43.516;3.684;2022-09-09T02:00:26;18.40;99.90
56424;DHT22;42329;43.516;3.684;2022-09-09T02:02:55;18.40;99.90
56424;DHT22;42329;43.516;3.684;2022-09-09T02:05:27;18.40;99.90
56424;DHT22;42329;43.516;3.684;2022-09-09T02:07:58;18.30;99.90
56424;DHT22;42329;43.516;3.684;2022-09-09T02:10:28;18.30;99.90
56424;DHT22;42329;43.516;3.684;2022-09-09T02:12:59;18.30;99.90
56424;DHT22;42329;43.516;3.684;2022-09-09T02:15:30;18.20;99.90
56424;DHT22;42329;43.516;3.684;2022-09-09T02:17:59;18.20;99.90
56424;DHT22;42329;43.516;3.684;2022-09-09T02:20:27;18.20;99.90
56424;DHT22;42329;43.516;3.684;2022-09-09T02:22:57;18.10;99.90
56424;DHT22;42329;43.516;3.684;2022-09-09T02:25:26;18.00;99.90
56424;DHT22;42329;43.516;3.684;2022-09-09T02:27:54;18.00;99.90
56424;DHT22;42329;43.516;3.684;2022-09-09T02:30:23;18.00;99.90
56424;DHT22;42329;43.516;3.684;2022-09-09T02:32:52;18.10;99.90
56424;DHT22;42329;43.516;3.684;2022-09-09T02:35:23;18.00;99.90
56424;DHT22;42329;43.516;3.684;2022-09-09T02:37:52;18.00;99.90
56424;DHT22;42329;43.516;3.684;2022-09-09T02:40:20;18.00;99.90
56424;DHT22;42329;43.516;3.684;2022-09-09T02:42:48;18.00;99.90
56424;DHT22;42329;43.516;3.684;2022-09-09T02:45:16;18.00;99.90
56424;DHT22;42329;43.516;3.684;2022-09-09T02:47:45;17.90;99.90
56424;DHT22;42329;43.516;3.684;2022-09-09T02:50:17;17.90;99.90
56424;DHT22;42329;43.516;3.684;2022-09-09T02:52:49;17.90;99.90
56424;DHT22;42329;43.516;3.684;2022-09-09T02:55:21;17.90;99.90
56424;DHT22;42329;43.516;3.684;2022-09-09T02:57:50;17.90;99.90
56424;DHT22;42329;43.516;3.684;2022-09-09T03:00:22;17.90;99.90
56424;DHT22;42329;43.516;3.684;2022-09-09T03:02:49;17.90;99.90
56424;DHT22;42329;43.516;3.684;2022-09-09T03:05:18;17.90;99.90
56424;DHT22;42329;43.516;3.684;2022-09-09T03:07:45;17.90;99.90
56424;DHT22;42329;43.516;3.684;2022-09-09T03:10:12;18.00;99.90
56424;DHT22;42329;43.516;3.684;2022-09-09T03:12:39;18.00;99.90
56424;DHT22;42329;43.516;3.684;2022-09-09T03:15:07;18.00;99.90
56424;DHT22;42329;43.516;3.684;2022-09-09T03:17:38;18.10;99.90
56424;DHT22;42329;43.516;3.684;2022-09-09T03:20:06;18.10;99.90
56424;DHT22;42329;43.516;3.684;2022-09-09T03:22:35;18.10;99.90
56424;DHT22;42329;43.516;3.684;2022-09-09T03:25:02;18.20;99.90
56424;DHT22;42329;43.516;3.684;2022-09-09T03:27:29;18.20;99.90
56424;DHT22;42329;43.516;3.684;2022-09-09T03:29:56;18.30;99.90
56424;DHT22;42329;43.516;3.684;2022-09-09T03:32:23;18.30;99.90
56424;DHT22;42329;43.516;3.684;2022-09-09T03:34:51;18.30;99.90
56424;DHT22;42329;43.516;3.684;2022-09-09T03:37:18;18.30;99.90
56424;DHT22;42329;43.516;3.684;2022-09-09T03:39:47;18.30;99.90
56424;DHT22;42329;43.516;3.684;2022-09-09T03:42:14;18.40;99.90
56424;DHT22;42329;43.516;3.684;2022-09-09T03:44:44;18.40;99.90
56424;DHT22;42329;43.516;3.684;2022-09-09T03:47:16;18.40;99.90
56424;DHT22;42329;43.516;3.684;2022-09-09T03:49:43;18.50;99.90
56424;DHT22;42329;43.516;3.684;2022-09-09T03:52:10;18.50;99.90
56424;DHT22;42329;43.516;3.684;2022-09-09T03:54:37;18.50;99.90
56424;DHT22;42329;43.516;3.684;2022-09-09T03:57:06;18.50;99.90
56424;DHT22;42329;43.516;3.684;2022-09-09T03:59:33;18.60;99.90
56424;DHT22;42329;43.516;3.684;2022-09-09T04:02:00;18.60;99.90
56424;DHT22;42329;43.516;3.684;2022-09-09T04:04:27;18.60;99.90
56424;DHT22;42329;43.516;3.684;2022-09-09T04:06:54;18.60;99.90
56424;DHT22;42329;43.516;3.684;2022-09-09T04:09:21;18.70;99.90
56424;DHT22;42329;43.516;3.684;2022-09-09T04:11:48;18.70;99.90
56424;DHT22;42329;43.516;3.684;2022-09-09T04:14:17;18.70;99.90
56424;DHT22;42329;43.516;3.684;2022-09-09T04:16:44;18.80;99.90
56424;DHT22;42329;43.516;3.684;2022-09-09T04:19:12;18.80;99.90
56424;DHT22;42329;43.516;3.684;2022-09-09T04:21:39;18.90;99.90
56424;DHT22;42329;43.516;3.684;2022-09-09T04:24:06;18.90;99.90
56424;DHT22;42329;43.516;3.684;2022-09-09T04:26:33;18.90;99.90
56424;DHT22;42329;43.516;3.684;2022-09-09T04:29:00;18.90;99.90
56424;DHT22;42329;43.516;3.684;2022-09-09T04:31:29;19.00;99.90
56424;DHT22;42329;43.516;3.684;2022-09-09T04:33:56;19.00;99.90
56424;DHT22;42329;43.516;3.684;2022-09-09T04:36:23;19.00;99.90
56424;DHT22;42329;43.516;3.684;2022-09-09T04:38:50;19.10;99.90
56424;DHT22;42329;43.516;3.684;2022-09-09T04:41:17;19.20;99.90
56424;DHT22;42329;43.516;3.684;2022-09-09T04:43:44;19.20;99.90
56424;DHT22;42329;43.516;3.684;2022-09-09T04:46:11;19.30;99.90
56424;DHT22;42329;43.516;3.684;2022-09-09T04:48:39;19.30;99.90
56424;DHT22;42329;43.516;3.684;2022-09-09T04:51:12;19.40;99.90
56424;DHT22;42329;43.516;3.684;2022-09-09T04:53:40;19.40;99.90
56424;DHT22;42329;43.516;3.684;2022-09-09T04:56:08;19.40;99.90
56424;DHT22;42329;43.516;3.684;2022-09-09T04:58:35;19.40;99.90
56424;DHT22;42329;43.516;3.684;2022-09-09T05:01:03;19.40;99.90
56424;DHT22;42329;43.516;3.684;2022-09-09T05:03:30;19.40;99.80
56424;DHT22;42329;43.516;3.684;2022-09-09T05:06:03;19.50;99.60
56424;DHT22;42329;43.516;3.684;2022-09-09T05:08:31;19.50;99.50
56424;DHT22;42329;43.516;3.684;2022-09-09T05:10:58;19.50;99.30
56424;DHT22;42329;43.516;3.684;2022-09-09T05:13:25;19.50;99.30
56424;DHT22;42329;43.516;3.684;2022-09-09T05:15:53;19.60;99.20
56424;DHT22;42329;43.516;3.684;2022-09-09T05:18:20;19.60;99.30
56424;DHT22;42329;43.516;3.684;2022-09-09T05:20:47;19.60;99.50
56424;DHT22;42329;43.516;3.684;2022-09-09T05:23:16;19.60;99.90
56424;DHT22;42329;43.516;3.684;2022-09-09T05:25:43;19.60;99.90
56424;DHT22;42329;43.516;3.684;2022-09-09T05:28:12;19.60;99.90
56424;DHT22;42329;43.516;3.684;2022-09-09T05:30:39;19.70;99.90
56424;DHT22;42329;43.516;3.684;2022-09-09T05:33:06;19.60;99.90
56424;DHT22;42329;43.516;3.684;2022-09-09T05:35:34;19.60;99.90
56424;DHT22;42329;43.516;3.684;2022-09-09T05:38:03;19.60;99.40
56424;DHT22;42329;43.516;3.684;2022-09-09T05:40:31;19.60;99.80
56424;DHT22;42329;43.516;3.684;2022-09-09T05:42:59;19.60;99.90
56424;DHT22;42329;43.516;3.684;2022-09-09T05:45:27;19.70;99.90
56424;DHT22;42329;43.516;3.684;2022-09-09T05:47:54;19.70;99.90
56424;DHT22;42329;43.516;3.684;2022-09-09T05:50:21;19.70;99.90
56424;DHT22;42329;43.516;3.684;2022-09-09T05:52:48;19.70;99.90
56424;DHT22;42329;43.516;3.684;2022-09-09T05:55:15;19.70;99.90
56424;DHT22;42329;43.516;3.684;2022-09-09T05:57:49;19.70;99.90
56424;DHT22;42329;43.516;3.684;2022-09-09T06:00:17;19.70;99.90
56424;DHT22;42329;43.516;3.684;2022-09-09T06:02:50;19.70;99.90
56424;DHT22;42329;43.516;3.684;2022-09-09T06:05:17;19.70;99.90
56424;DHT22;42329;43.516;3.684;2022-09-09T06:07:44;19.70;99.90
56424;DHT22;42329;43.516;3.684;2022-09-09T06:10:11;19.70;99.90
56424;DHT22;42329;43.516;3.684;2022-09-09T06:12:39;19.80;99.90
56424;DHT22;42329;43.516;3.684;2022-09-09T06:15:08;19.80;99.90
56424;DHT22;42329;43.516;3.684;2022-09-09T06:17:35;19.80;99.90
56424;DHT22;42329;43.516;3.684;2022-09-09T06:20:02;19.80;99.90
56424;DHT22;42329;43.516;3.684;2022-09-09T06:22:30;19.90;99.90
56424;DHT22;42329;43.516;3.684;2022-09-09T06:24:57;19.90;99.90
56424;DHT22;42329;43.516;3.684;2022-09-09T06:27:23;19.90;99.90
56424;DHT22;42329;43.516;3.684;2022-09-09T06:29:50;19.90;99.90
56424;DHT22;42329;43.516;3.684;2022-09-09T06:32:19;20.00;99.90
56424;DHT22;42329;43.516;3.684;2022-09-09T06:34:46;20.00;99.90
56424;DHT22;42329;43.516;3.684;2022-09-09T06:37:14;20.00;99.90
56424;DHT22;42329;43.516;3.684;2022-09-09T06:39:41;20.10;99.90
56424;DHT22;42329;43.516;3.684;2022-09-09T06:42:08;20.10;99.30
56424;DHT22;42329;43.516;3.684;2022-09-09T06:44:35;20.10;98.90
56424;DHT22;42329;43.516;3.684;2022-09-09T06:47:03;20.20;98.70
56424;DHT22;42329;43.516;3.684;2022-09-09T06:49:32;20.20;98.60
56424;DHT22;42329;43.516;3.684;2022-09-09T06:52:00;20.20;98.60
56424;DHT22;42329;43.516;3.684;2022-09-09T06:54:27;20.20;98.60
56424;DHT22;42329;43.516;3.684;2022-09-09T06:56:54;20.30;98.60
56424;DHT22;42329;43.516;3.684;2022-09-09T06:59:21;20.30;98.20
56424;DHT22;42329;43.516;3.684;2022-09-09T07:01:48;20.30;98.40
56424;DHT22;42329;43.516;3.684;2022-09-09T07:04:17;20.30;98.30
56424;DHT22;42329;43.516;3.684;2022-09-09T07:06:46;20.40;97.80
56424;DHT22;42329;43.516;3.684;2022-09-09T07:09:13;20.40;98.10
56424;DHT22;42329;43.516;3.684;2022-09-09T07:11:41;20.40;98.20
56424;DHT22;42329;43.516;3.684;2022-09-09T07:14:09;20.40;98.20
56424;DHT22;42329;43.516;3.684;2022-09-09T07:16:38;20.50;98.00
56424;DHT22;42329;43.516;3.684;2022-09-09T07:19:05;20.50;97.90
56424;DHT22;42329;43.516;3.684;2022-09-09T07:21:32;20.60;98.30
56424;DHT22;42329;43.516;3.684;2022-09-09T07:24:01;20.70;97.70
56424;DHT22;42329;43.516;3.684;2022-09-09T07:26:29;20.80;97.70
56424;DHT22;42329;43.516;3.684;2022-09-09T07:28:56;20.80;97.80
56424;DHT22;42329;43.516;3.684;2022-09-09T07:31:24;20.80;98.10
56424;DHT22;42329;43.516;3.684;2022-09-09T07:33:52;20.80;98.10
56424;DHT22;42329;43.516;3.684;2022-09-09T07:36:20;20.80;98.00
56424;DHT22;42329;43.516;3.684;2022-09-09T07:38:49;20.80;98.20
56424;DHT22;42329;43.516;3.684;2022-09-09T07:41:19;20.80;98.30
56424;DHT22;42329;43.516;3.684;2022-09-09T07:43:47;20.80;98.60
56424;DHT22;42329;43.516;3.684;2022-09-09T07:46:15;20.80;98.70
56424;DHT22;42329;43.516;3.684;2022-09-09T07:48:43;20.80;97.90
56424;DHT22;42329;43.516;3.684;2022-09-09T07:51:11;20.80;97.80
56424;DHT22;42329;43.516;3.684;2022-09-09T07:53:40;20.80;98.30
56424;DHT22;42329;43.516;3.684;2022-09-09T07:56:08;20.80;98.20
56424;DHT22;42329;43.516;3.684;2022-09-09T07:58:37;20.80;98.40
56424;DHT22;42329;43.516;3.684;2022-09-09T08:01:08;20.80;98.50
56424;DHT22;42329;43.516;3.684;2022-09-09T08:03:35;20.80;98.70
56424;DHT22;42329;43.516;3.684;2022-09-09T08:06:03;20.80;98.40
56424;DHT22;42329;43.516;3.684;2022-09-09T08:08:30;20.80;98.60
56424;DHT22;42329;43.516;3.684;2022-09-09T08:11:07;20.80;98.90
56424;DHT22;42329;43.516;3.684;2022-09-09T08:13:34;20.80;99.00
56424;DHT22;42329;43.516;3.684;2022-09-09T08:16:09;20.80;99.30
56424;DHT22;42329;43.516;3.684;2022-09-09T08:18:37;20.80;99.30
56424;DHT22;42329;43.516;3.684;2022-09-09T08:21:05;20.80;99.30
56424;DHT22;42329;43.516;3.684;2022-09-09T08:23:32;20.80;99.60
56424;DHT22;42329;43.516;3.684;2022-09-09T08:26:03;20.80;99.60
56424;DHT22;42329;43.516;3.684;2022-09-09T08:28:30;20.80;99.70
56424;DHT22;42329;43.516;3.684;2022-09-09T08:31:04;20.80;99.90
56424;DHT22;42329;43.516;3.684;2022-09-09T08:33:32;20.90;99.00
56424;DHT22;42329;43.516;3.684;2022-09-09T08:35:59;20.80;98.20
56424;DHT22;42329;43.516;3.684;2022-09-09T08:38:26;20.90;97.40
56424;DHT22;42329;43.516;3.684;2022-09-09T08:40:54;20.90;97.90
56424;DHT22;42329;43.516;3.684;2022-09-09T08:43:24;20.90;98.00
56424;DHT22;42329;43.516;3.684;2022-09-09T08:45:55;20.90;97.90
56424;DHT22;42329;43.516;3.684;2022-09-09T08:48:30;20.90;96.90
56424;DHT22;42329;43.516;3.684;2022-09-09T08:51:05;20.90;97.70
56424;DHT22;42329;43.516;3.684;2022-09-09T08:53:34;21.00;98.10
56424;DHT22;42329;43.516;3.684;2022-09-09T08:56:08;21.00;97.70
56424;DHT22;42329;43.516;3.684;2022-09-09T08:58:39;21.00;97.80
56424;DHT22;42329;43.516;3.684;2022-09-09T09:01:22;21.10;97.90
56424;DHT22;42329;43.516;3.684;2022-09-09T09:03:55;21.10;97.30
56424;DHT22;42329;43.516;3.684;2022-09-09T09:06:26;21.20;97.60
56424;DHT22;42329;43.516;3.684;2022-09-09T09:09:02;21.20;97.40
56424;DHT22;42329;43.516;3.684;2022-09-09T09:11:34;21.20;97.50
56424;DHT22;42329;43.516;3.684;2022-09-09T09:14:02;21.30;97.20
56424;DHT22;42329;43.516;3.684;2022-09-09T09:16:31;21.40;97.60
56424;DHT22;42329;43.516;3.684;2022-09-09T09:18:59;21.40;97.40
56424;DHT22;42329;43.516;3.684;2022-09-09T09:21:31;21.50;97.40
56424;DHT22;42329;43.516;3.684;2022-09-09T09:24:01;21.50;97.60
56424;DHT22;42329;43.516;3.684;2022-09-09T09:26:30;21.60;97.70
56424;DHT22;42329;43.516;3.684;2022-09-09T09:28:59;21.60;97.10
56424;DHT22;42329;43.516;3.684;2022-09-09T09:31:28;21.70;97.00
56424;DHT22;42329;43.516;3.684;2022-09-09T09:33:55;21.70;96.40
56424;DHT22;42329;43.516;3.684;2022-09-09T09:36:24;21.80;96.20
56424;DHT22;42329;43.516;3.684;2022-09-09T09:38:54;21.90;96.50
56424;DHT22;42329;43.516;3.684;2022-09-09T09:41:28;22.00;96.80
56424;DHT22;42329;43.516;3.684;2022-09-09T09:43:55;22.00;96.60
56424;DHT22;42329;43.516;3.684;2022-09-09T09:46:23;22.10;96.80
56424;DHT22;42329;43.516;3.684;2022-09-09T09:49:00;22.20;96.00
56424;DHT22;42329;43.516;3.684;2022-09-09T09:51:27;22.30;96.10
56424;DHT22;42329;43.516;3.684;2022-09-09T09:54:03;22.40;95.60
56424;DHT22;42329;43.516;3.684;2022-09-09T09:56:35;22.60;94.70
56424;DHT22;42329;43.516;3.684;2022-09-09T09:59:02;22.70;94.60
56424;DHT22;42329;43.516;3.684;2022-09-09T10:01:30;22.70;94.20
56424;DHT22;42329;43.516;3.684;2022-09-09T10:03:58;22.80;94.60
56424;DHT22;42329;43.516;3.684;2022-09-09T10:06:29;22.90;95.10
56424;DHT22;42329;43.516;3.684;2022-09-09T10:08:56;23.10;95.00
56424;DHT22;42329;43.516;3.684;2022-09-09T10:11:28;23.20;95.20
56424;DHT22;42329;43.516;3.684;2022-09-09T10:14:00;23.30;94.40
56424;DHT22;42329;43.516;3.684;2022-09-09T10:16:34;23.40;94.00
56424;DHT22;42329;43.516;3.684;2022-09-09T10:19:04;23.40;93.60
56424;DHT22;42329;43.516;3.684;2022-09-09T10:21:36;23.50;93.50
56424;DHT22;42329;43.516;3.684;2022-09-09T10:24:13;23.60;93.30
56424;DHT22;42329;43.516;3.684;2022-09-09T10:26:50;23.70;93.10
56424;DHT22;42329;43.516;3.684;2022-09-09T10:29:22;23.80;93.50
56424;DHT22;42329;43.516;3.684;2022-09-09T10:31:54;23.90;93.20
56424;DHT22;42329;43.516;3.684;2022-09-09T10:34:32;23.90;93.30
56424;DHT22;42329;43.516;3.684;2022-09-09T10:37:02;24.00;93.20
56424;DHT22;42329;43.516;3.684;2022-09-09T10:39:34;24.00;93.30
56424;DHT22;42329;43.516;3.684;2022-09-09T10:42:04;24.10;92.90
56424;DHT22;42329;43.516;3.684;2022-09-09T10:44:36;24.10;92.50
56424;DHT22;42329;43.516;3.684;2022-09-09T10:47:20;24.20;93.40
56424;DHT22;42329;43.516;3.684;2022-09-09T10:52:36;24.40;92.30
56424;DHT22;42329;43.516;3.684;2022-09-09T10:55:09;24.50;92.20
56424;DHT22;42329;43.516;3.684;2022-09-09T10:57:40;24.60;91.80
56424;DHT22;42329;43.516;3.684;2022-09-09T11:00:14;24.60;92.10
56424;DHT22;42329;43.516;3.684;2022-09-09T11:02:42;24.70;92.00
56424;DHT22;42329;43.516;3.684;2022-09-09T11:05:10;24.70;92.10
56424;DHT22;42329;43.516;3.684;2022-09-09T11:07:42;24.90;92.90
56424;DHT22;42329;43.516;3.684;2022-09-09T11:10:17;24.90;92.30
56424;DHT22;42329;43.516;3.684;2022-09-09T11:12:47;25.00;92.40
56424;DHT22;42329;43.516;3.684;2022-09-09T11:15:17;25.00;92.60
56424;DHT22;42329;43.516;3.684;2022-09-09T11:17:46;25.00;92.10
56424;DHT22;42329;43.516;3.684;2022-09-09T11:20:14;24.90;92.70
56424;DHT22;42329;43.516;3.684;2022-09-09T11:22:43;24.90;92.60
56424;DHT22;42329;43.516;3.684;2022-09-09T11:25:14;24.90;91.40
56424;DHT22;42329;43.516;3.684;2022-09-09T11:27:43;24.90;91.70
56424;DHT22;42329;43.516;3.684;2022-09-09T11:30:18;24.90;92.20
56424;DHT22;42329;43.516;3.684;2022-09-09T11:33:08;25.00;91.40
56424;DHT22;42329;43.516;3.684;2022-09-09T11:35:43;25.00;90.90
56424;DHT22;42329;43.516;3.684;2022-09-09T11:38:21;25.10;91.50
56424;DHT22;42329;43.516;3.684;2022-09-09T11:40:58;25.20;90.80
56424;DHT22;42329;43.516;3.684;2022-09-09T11:43:27;25.10;91.70
56424;DHT22;42329;43.516;3.684;2022-09-09T11:45:56;25.30;91.60
56424;DHT22;42329;43.516;3.684;2022-09-09T11:48:26;25.50;91.10
56424;DHT22;42329;43.516;3.684;2022-09-09T11:50:57;25.50;90.80
56424;DHT22;42329;43.516;3.684;2022-09-09T11:53:25;25.70;90.90
56424;DHT22;42329;43.516;3.684;2022-09-09T11:56:03;25.80;90.40
56424;DHT22;42329;43.516;3.684;2022-09-09T11:58:31;25.90;90.50
56424;DHT22;42329;43.516;3.684;2022-09-09T12:01:02;25.90;90.40
56424;DHT22;42329;43.516;3.684;2022-09-09T12:03:40;26.00;90.60
56424;DHT22;42329;43.516;3.684;2022-09-09T12:06:09;26.10;90.70
56424;DHT22;42329;43.516;3.684;2022-09-09T12:08:40;26.00;89.60
56424;DHT22;42329;43.516;3.684;2022-09-09T12:11:08;26.00;89.80
56424;DHT22;42329;43.516;3.684;2022-09-09T12:13:36;26.10;88.60
56424;DHT22;42329;43.516;3.684;2022-09-09T12:16:05;26.10;88.20
56424;DHT22;42329;43.516;3.684;2022-09-09T12:18:32;26.20;87.60
56424;DHT22;42329;43.516;3.684;2022-09-09T12:21:02;26.10;88.50
56424;DHT22;42329;43.516;3.684;2022-09-09T12:23:37;26.10;86.90
56424;DHT22;42329;43.516;3.684;2022-09-09T12:26:13;26.20;89.20
56424;DHT22;42329;43.516;3.684;2022-09-09T12:28:45;26.30;88.90
56424;DHT22;42329;43.516;3.684;2022-09-09T12:31:19;26.50;85.60
56424;DHT22;42329;43.516;3.684;2022-09-09T12:33:48;26.50;85.90
56424;DHT22;42329;43.516;3.684;2022-09-09T12:36:18;26.60;88.40
56424;DHT22;42329;43.516;3.684;2022-09-09T12:38:46;26.60;87.90
56424;DHT22;42329;43.516;3.684;2022-09-09T12:41:18;26.60;86.80
56424;DHT22;42329;43.516;3.684;2022-09-09T12:43:45;26.70;86.60
56424;DHT22;42329;43.516;3.684;2022-09-09T12:46:14;26.70;87.10
56424;DHT22;42329;43.516;3.684;2022-09-09T12:48:47;26.80;86.80
56424;DHT22;42329;43.516;3.684;2022-09-09T12:51:17;26.70;86.20
56424;DHT22;42329;43.516;3.684;2022-09-09T12:53:45;26.70;86.70
56424;DHT22;42329;43.516;3.684;2022-09-09T12:56:18;26.70;87.80
56424;DHT22;42329;43.516;3.684;2022-09-09T12:58:45;26.80;87.20
56424;DHT22;42329;43.516;3.684;2022-09-09T13:01:18;26.80;87.50
56424;DHT22;42329;43.516;3.684;2022-09-09T13:03:48;26.80;86.50
56424;DHT22;42329;43.516;3.684;2022-09-09T13:06:18;26.80;86.20
56424;DHT22;42329;43.516;3.684;2022-09-09T13:08:48;26.80;85.10
56424;DHT22;42329;43.516;3.684;2022-09-09T13:11:15;26.80;86.10
56424;DHT22;42329;43.516;3.684;2022-09-09T13:13:49;26.70;87.00
56424;DHT22;42329;43.516;3.684;2022-09-09T13:16:20;26.70;85.80
56424;DHT22;42329;43.516;3.684;2022-09-09T13:18:49;26.60;87.10
56424;DHT22;42329;43.516;3.684;2022-09-09T13:21:17;26.60;86.50
56424;DHT22;42329;43.516;3.684;2022-09-09T13:23:48;26.60;86.30
56424;DHT22;42329;43.516;3.684;2022-09-09T13:26:22;26.60;86.80
56424;DHT22;42329;43.516;3.684;2022-09-09T13:28:50;26.50;86.10
56424;DHT22;42329;43.516;3.684;2022-09-09T13:31:20;26.50;86.60
56424;DHT22;42329;43.516;3.684;2022-09-09T13:33:48;26.50;86.30
56424;DHT22;42329;43.516;3.684;2022-09-09T13:36:16;26.40;85.40
56424;DHT22;42329;43.516;3.684;2022-09-09T13:38:55;26.40;86.40
56424;DHT22;42329;43.516;3.684;2022-09-09T13:41:23;26.40;87.50
56424;DHT22;42329;43.516;3.684;2022-09-09T13:43:51;26.30;86.80
56424;DHT22;42329;43.516;3.684;2022-09-09T13:46:24;26.30;85.40
56424;DHT22;42329;43.516;3.684;2022-09-09T13:48:55;26.20;85.50
56424;DHT22;42329;43.516;3.684;2022-09-09T13:51:27;26.10;87.00
56424;DHT22;42329;43.516;3.684;2022-09-09T13:53:56;26.10;86.70
56424;DHT22;42329;43.516;3.684;2022-09-09T13:56:24;26.10;86.40
56424;DHT22;42329;43.516;3.684;2022-09-09T13:58:51;26.00;87.00
56424;DHT22;42329;43.516;3.684;2022-09-09T14:01:18;26.00;85.00
56424;DHT22;42329;43.516;3.684;2022-09-09T14:03:45;25.90;85.30
56424;DHT22;42329;43.516;3.684;2022-09-09T14:06:12;25.90;84.70
56424;DHT22;42329;43.516;3.684;2022-09-09T14:08:41;25.90;84.60
56424;DHT22;42329;43.516;3.684;2022-09-09T14:11:08;25.90;84.90
56424;DHT22;42329;43.516;3.684;2022-09-09T14:13:37;25.90;85.40
56424;DHT22;42329;43.516;3.684;2022-09-09T14:16:04;25.80;83.30
56424;DHT22;42329;43.516;3.684;2022-09-09T14:18:31;25.80;83.60
56424;DHT22;42329;43.516;3.684;2022-09-09T14:20:59;25.80;84.20
56424;DHT22;42329;43.516;3.684;2022-09-09T14:23:27;25.80;85.30
56424;DHT22;42329;43.516;3.684;2022-09-09T14:25:56;25.80;84.60
56424;DHT22;42329;43.516;3.684;2022-09-09T14:28:23;25.80;85.80
56424;DHT22;42329;43.516;3.684;2022-09-09T14:30:50;25.70;85.00
56424;DHT22;42329;43.516;3.684;2022-09-09T14:33:17;25.70;84.60
56424;DHT22;42329;43.516;3.684;2022-09-09T14:35:44;25.60;83.80
56424;DHT22;42329;43.516;3.684;2022-09-09T14:38:11;25.70;85.90
56424;DHT22;42329;43.516;3.684;2022-09-09T14:40:39;25.70;85.40
56424;DHT22;42329;43.516;3.684;2022-09-09T14:43:09;25.70;85.00
56424;DHT22;42329;43.516;3.684;2022-09-09T14:45:36;25.70;84.30
56424;DHT22;42329;43.516;3.684;2022-09-09T14:48:03;25.70;85.00
56424;DHT22;42329;43.516;3.684;2022-09-09T14:50:30;25.60;85.80
56424;DHT22;42329;43.516;3.684;2022-09-09T14:52:58;25.60;84.80
56424;DHT22;42329;43.516;3.684;2022-09-09T14:55:25;25.60;84.70
56424;DHT22;42329;43.516;3.684;2022-09-09T14:57:54;25.60;84.70
56424;DHT22;42329;43.516;3.684;2022-09-09T15:00:22;25.60;84.80
56424;DHT22;42329;43.516;3.684;2022-09-09T15:02:51;25.50;84.50
56424;DHT22;42329;43.516;3.684;2022-09-09T15:05:18;25.50;85.00
56424;DHT22;42329;43.516;3.684;2022-09-09T15:07:45;25.50;85.20
56424;DHT22;42329;43.516;3.684;2022-09-09T15:10:13;25.50;84.80
56424;DHT22;42329;43.516;3.684;2022-09-09T15:12:40;25.50;86.00
56424;DHT22;42329;43.516;3.684;2022-09-09T15:15:08;25.50;85.30
56424;DHT22;42329;43.516;3.684;2022-09-09T15:17:36;25.50;86.00
56424;DHT22;42329;43.516;3.684;2022-09-09T15:20:04;25.40;84.90
56424;DHT22;42329;43.516;3.684;2022-09-09T15:22:32;25.40;85.10
56424;DHT22;42329;43.516;3.684;2022-09-09T15:24:59;25.40;85.50
56424;DHT22;42329;43.516;3.684;2022-09-09T15:27:26;25.30;85.00
56424;DHT22;42329;43.516;3.684;2022-09-09T15:29:54;25.10;85.40
56424;DHT22;42329;43.516;3.684;2022-09-09T15:32:23;25.00;85.60
56424;DHT22;42329;43.516;3.684;2022-09-09T15:34:51;24.90;86.20
56424;DHT22;42329;43.516;3.684;2022-09-09T15:37:19;24.70;86.30
56424;DHT22;42329;43.516;3.684;2022-09-09T15:39:46;24.60;87.50
56424;DHT22;42329;43.516;3.684;2022-09-09T15:42:13;24.50;88.10
56424;DHT22;42329;43.516;3.684;2022-09-09T15:44:40;24.60;89.10
56424;DHT22;42329;43.516;3.684;2022-09-09T15:47:08;24.70;88.80
56424;DHT22;42329;43.516;3.684;2022-09-09T15:49:37;24.70;87.80